Deerfield, MA

6:11 AM EDT on August 28, 2015 (GMT -0400)
Plain Road East | | Change Station
CLOSE
Current Station
Personal Weather Station
Location: South Deerfield, MA
Elevation: 223 ft
Nearby Weather Stations

Elev 223 ft 42.50 °N, 72.61 °W | Updated 7 minutes ago

Partly Cloudy
Partly Cloudy
51.9 °F
Feels Like 51.9 °F
N
0.0
Wind Variable Wind from North
Gusts 0.0 mph

Today
High -- | Low -- °F
--% Chance of Precip.
Yesterday
High -- | Low -- °F
Precip. -- in
6:11 AM 7:31 PM
Waxing Gibbous, 97% visible
Pressure 30.14 in
Visibility 0.2 miles
Clouds
Dew Point 51 °F
Humidity 97%
Rainfall Not available.
Snow Depth Not available.
UV Not available.
Pollen 10.00 out of 12
Air Quality Not available.
Flu Activity Not available.
METAR KORE 280952Z AUTO 00000KT 1/4SM FG VV002 11/11 A3014 RMK AO2 SLP207 T01110111
Pressure 30.14 in
Visibility 0.2 miles
Clouds
Dew Point 51 °F
Humidity 97%
Rainfall Not available.
Snow Depth Not available.
UV Not available.
Pollen 10.00 out of 12
Air Quality Not available.
Flu Activity Not available.
METAR KORE 280952Z AUTO 00000KT 1/4SM FG VV002 11/11 A3014 RMK AO2 SLP207 T01110111

10-Day Weather Forecast

×

Almanac

Astronomy

Aug. 28, 2015 Rise Set
Actual Time
Civil Twilight
Nautical Twilight
Astronomical Twilight
Moon
Length of Visible Light
Length of Day
Tomorrow will be .
, % of the Moon is Illuminated

Today's Extremes

State Highs State Lows

Community

WunderPhotos

Upload Photos

1,850,355 photos uploaded!

WunderBlogs® & News

Nearby

Air Quality

  Air Quality AQ Index Pollutant
Not available.

Snow Depth

Station Depth Elevation

Earthquake Activity

City Distance Mag. Time & Date
Minimum magnitude displayed is 2.5.

Coastal Water Temperatures

Place Temperature

Stations

Nearby Weather Stations

Station Location Temp. Windchill Dew Point Humidity Wind Precip. Elev Updated Type